TAF and METAR

Decoding for American and Canadian METARs and TAFs is not fully implemented.

Could not understand the following METAR

CWIL 290300Z AUTO 35019KT ////SM OVC011 M04/M05 A3022
No TAF available for Hat Island